Flight Track Log - Related Links

Times and Time Zones

All times are in EST time to prevent confusion due to time zone crossing. See the N589H flight status page for this flight to view local times or setup timezone preferences in your user account.

Time Position Orientation Groundspeed Altitude Reporting Facility
EST Latitude Longitude Course Direction KTS MPH feet Rate Location/Type
Fri 12:13:20 AM 44.0333 -78.4000 191° South 250 288 8,500  Level Toronto Center
Fri 12:14:20 AM 43.9833 -78.4000 180° South 220 253 10,600 2,200 Climbing Toronto Center
Fri 12:15:20 AM 43.9167 -78.4333 200° South 220 253 12,900 2,150 Climbing Toronto Center
Fri 12:16:20 AM 43.8667 -78.4500 194° South 220 253 14,900 1,850 Climbing Toronto Center
Fri 12:17:00 AM 43.6199 -78.5167 180° South  Level FlightAware Approximate
Fri 12:17:20 AM 43.8000 -78.4500 180° South 230 265 16,600  Level Toronto Center
Fri 12:18:00 AM 43.5328 -78.5391 191° South  Level FlightAware Approximate
Fri 12:18:20 AM 43.7333 -78.4833 200° South 240 276 17,900  Level Toronto Center
Fri 12:19:20 AM 43.6833 -78.5000 194° South 250 288 19,500 1,650 Climbing Toronto Center
Fri 12:20:20 AM 43.6000 -78.5333 196° South 260 299 21,200 1,700 Climbing Toronto Center
Fri 12:21:20 AM 43.5333 -78.5500 190° South 260 299 22,900 1,700 Climbing Toronto Center
Fri 12:22:20 AM 43.4667 -78.5833 200° South 270 311 24,600 1,700 Climbing Toronto Center
Fri 12:23:20 AM 43.3833 -78.6000 188° South 280 322 26,300 1,450 Climbing Toronto Center
Fri 12:24:20 AM 43.3167 -78.6167 190° South 290 334 27,500 1,400 Climbing Toronto Center
Fri 12:25:20 AM 43.2333 -78.6500 196° South 300 345 29,100 1,350 Climbing Toronto Center
Fri 12:26:20 AM 43.1500 -78.6667 188° South 300 345 30,200 1,200 Climbing Toronto Center
Fri 12:27:20 AM 43.0667 -78.7000 196° South 300 345 31,500 900 Climbing Toronto Center
Fri 12:28:20 AM 42.9833 -78.7167 188° South 310 357 32,000 250 Climbing Toronto Center
Fri 12:29:20 AM 42.9000 -78.7500 196° South 330 380 32,000  Level Toronto Center
Fri 12:30:20 AM 42.8000 -78.7667 187° South 340 391 32,000  Level Toronto Center
Fri 12:31:20 AM 42.7000 -78.8167 200° South 350 403 32,000  Level Toronto Center
Fri 12:32:20 AM 42.6000 -78.8333 187° South 360 414 32,000  Level Toronto Center
Fri 12:33:20 AM 42.5000 -78.8667 194° South 360 414 32,000  Level Toronto Center
Fri 12:34:20 AM 42.4167 -78.9167 204° Southwest 360 414 32,000  Level Toronto Center
Fri 12:35:20 AM 42.3167 -78.9333 187° South 360 414 32,000  Level Toronto Center
Fri 12:36:20 AM 42.2167 -78.9667 194° South 360 414 32,000  Level Toronto Center
Fri 12:37:20 AM 42.1167 -79.0000 194° South 360 414 32,000  Level Toronto Center
Fri 12:38:20 AM 42.0167 -79.0333 194° South 360 414 32,000  Level Toronto Center
Fri 12:39:20 AM 41.9167 -79.0500 187° South 360 414 32,000  Level Toronto Center
Fri 12:40:39 AM 41.7931 -79.1142 201° Southwest 366 421 32,000  Level Cleveland Center
Fri 12:41:39 AM 41.6953 -79.1456 193° South 364 419 32,000  Level Cleveland Center
Fri 12:42:39 AM 41.5983 -79.1750 193° South 374 430 32,000  Level Cleveland Center
Fri 12:43:40 AM 41.5025 -79.2039 193° South 360 414 32,000  Level Cleveland Center
Fri 12:44:40 AM 41.4072 -79.2322 193° South 357 411 32,000  Level Cleveland Center
Fri 12:45:40 AM 41.3125 -79.2603 193° South 356 410 32,000  Level Cleveland Center
Fri 12:46:41 AM 41.2236 -79.2878 193° South 356 410 32,000  Level Cleveland Center
Fri 12:47:41 AM 41.1272 -79.3206 194° South 360 414 32,000  Level Cleveland Center
Fri 12:48:41 AM 41.0331 -79.3489 193° South 354 407 32,000  Level Cleveland Center
Fri 12:49:41 AM 40.9358 -79.3783 193° South 357 411 32,000  Level Cleveland Center
Fri 12:50:42 AM 40.8417 -79.4056 192° South 354 407 32,000  Level Cleveland Center
Fri 12:51:42 AM 40.7464 -79.4339 193° South 350 403 32,000  Level Cleveland Center
Fri 12:52:42 AM 40.6531 -79.4608 192° South 350 403 32,000  Level Cleveland Center
Fri 12:53:42 AM 40.5581 -79.4900 193° South 351 404 32,000  Level Cleveland Center
Fri 12:54:43 AM 40.4619 -79.5175 192° South 354 407 32,000  Level Cleveland Center
Fri 12:55:43 AM 40.3683 -79.5450 193° South 349 402 32,000  Level Cleveland Center
Fri 12:56:43 AM 40.2758 -79.5725 193° South 344 396 32,000  Level Cleveland Center
Fri 12:57:43 AM 40.1861 -79.5975 192° South 332 382 32,000  Level Cleveland Center
Fri 12:58:44 AM 40.0925 -79.6244 192° South 336 387 32,000  Level Cleveland Center
Fri 12:59:44 AM 40.0000 -79.6494 192° South 338 389 32,000  Level Cleveland Center
Fri 01:00:44 AM 39.9064 -79.6764 192° South 340 391 32,000  Level Cleveland Center
Fri 01:01:44 AM 39.8144 -79.7022 192° South 340 391 32,000  Level Cleveland Center
Fri 01:02:44 AM 39.7228 -79.7289 193° South 338 389 32,000  Level Cleveland Center
Fri 01:03:45 AM 39.6317 -79.7542 192° South 337 388 32,000  Level Cleveland Center
Fri 01:04:45 AM 39.5422 -79.7803 193° South 335 386 32,000  Level Cleveland Center
Fri 01:05:45 AM 39.4517 -79.8053 192° South 332 382 32,000  Level Cleveland Center
Fri 01:06:45 AM 39.3597 -79.8308 192° South 334 384 32,000  Level Cleveland Center
Fri 01:07:45 AM 39.2697 -79.8569 193° South 333 383 32,000  Level Cleveland Center
Fri 01:08:46 AM 39.1803 -79.8825 192° South 333 383 32,000  Level Cleveland Center
Fri 01:09:46 AM 39.0906 -79.9069 192° South 330 380 32,000  Level Cleveland Center
Fri 01:10:47 AM 38.9847 -79.9419 194° South 342 394 32,000  Level Washington Center
Fri 01:11:47 AM 38.8961 -79.9714 195° South 337 388 32,000  Level Washington Center
Fri 01:12:50 AM 38.8142 -79.9906 190° South 337 388 32,000  Level Washington Center
Fri 01:13:47 AM 38.7278 -80.0144 192° South 337 388 32,000  Level Washington Center
Fri 01:14:47 AM 38.6372 -80.0411 193° South 332 382 32,000  Level Washington Center
Fri 01:15:48 AM 38.5508 -80.0650 192° South 332 382 32,000  Level Washington Center
Fri 01:16:50 AM 38.4625 -80.0864 191° South 332 382 32,000  Level Washington Center
Fri 01:17:48 AM 38.3675 -80.1150 193° South 327 376 32,000  Level Washington Center
Fri 01:18:47 AM 38.2811 -80.1389 192° South 322 371 32,000  Level Washington Center
Fri 01:19:47 AM 38.1925 -80.1625 192° South 322 371 32,000  Level Washington Center
Fri 01:20:47 AM 38.1042 -80.1861 192° South 322 371 32,000  Level Washington Center
Fri 01:21:48 AM 38.0156 -80.2097 192° South 322 371 32,000  Level Washington Center
Fri 01:22:48 AM 37.9375 -80.2311 192° South 322 371 32,000  Level Washington Center
Fri 01:23:49 AM 37.8533 -80.2522 191° South 322 371 32,000  Level Washington Center
Fri 01:24:47 AM 37.7647 -80.2758 192° South 322 371 32,000  Level Washington Center
Fri 01:25:47 AM 37.6783 -80.2992 192° South 322 371 32,000 -397 Level Washington Center
Fri 01:27:18 AM 37.5453 -80.3356 192° South 322 371 31,000 -834 Descending Atlanta Center
Fri 01:28:18 AM 37.4606 -80.3553 190° South 322 371 29,900 -1,100 Descending Atlanta Center
Fri 01:29:18 AM 37.3778 -80.3775 192° South 315 362 28,800 -950 Descending Atlanta Center
Fri 01:30:18 AM 37.3011 -80.3967 191° South 303 349 28,000 -400 Descending Atlanta Center
Fri 01:31:18 AM 37.2267 -80.4183 193° South 287 330 28,000  Level Atlanta Center
Fri 01:32:18 AM 37.1461 -80.4378 191° South 277 319 28,000  Level Atlanta Center
Fri 01:33:18 AM 37.0697 -80.4594 193° South 277 319 28,000  Level Atlanta Center
Fri 01:34:18 AM 36.9950 -80.4786 192° South 277 319 28,000  Level Atlanta Center
Fri 01:35:18 AM 36.9186 -80.5000 193° South 277 319 28,000  Level Atlanta Center
Fri 01:36:18 AM 36.8442 -80.5189 191° South 277 319 28,000  Level Atlanta Center
Fri 01:37:18 AM 36.7675 -80.5378 191° South 277 319 28,000 -250 Level Atlanta Center
Fri 01:38:18 AM 36.6972 -80.5592 194° South 277 319 27,500 -800 Descending Atlanta Center
Fri 01:39:18 AM 36.6142 -80.5783 190° South 277 319 26,400 -1,250 Descending Atlanta Center
Fri 01:40:18 AM 36.5356 -80.5972 191° South 277 319 25,000 -1,350 Descending Atlanta Center
Fri 01:41:18 AM 36.4589 -80.6186 193° South 277 319 23,700 -1,300 Descending Atlanta Center
Fri 01:42:18 AM 36.3889 -80.6422 195° South 277 319 22,400 -1,300 Descending Atlanta Center
Fri 01:43:18 AM 36.3225 -80.6603 192° South 267 307 21,100 -1,350 Descending Atlanta Center
Fri 01:44:18 AM 36.2522 -80.6814 194° South 260 299 19,700 -1,350 Descending Atlanta Center
Fri 01:45:18 AM 36.1817 -80.6997 192° South 260 299 18,400 -1,050 Descending Atlanta Center
Fri 01:46:18 AM 36.1092 -80.7181 192° South 260 299 17,600 -1,050 Descending Atlanta Center
Fri 01:46:38 AM 36.0825 -80.7269 195° South 269 310 17,000 -1,400 Descending Atlanta Center
Fri 01:47:18 AM 36.0347 -80.7392 192° South 265 305 16,200 -1,200 Descending Atlanta Center
Fri 01:47:33 AM 36.0181 -80.7425 189° South 277 319 15,900 -1,100 Descending Atlanta Center
Fri 01:48:18 AM 35.9581 -80.7578 192° South 277 319 15,100 -818 Descending Atlanta Center
Fri 01:48:39 AM 35.9311 -80.7664 195° South 276 318 15,000 -100 Descending Atlanta Center
Fri 01:49:18 AM 35.8856 -80.7786 192° South 277 319 15,000  Level Atlanta Center
Fri 01:49:40 AM 35.8586 -80.7847 190° South 272 313 15,000  Level Atlanta Center
Fri 01:50:18 AM 35.8111 -80.7969 192° South 277 319 15,000  Level Atlanta Center
Fri 01:50:41 AM 35.7819 -80.8058 194° South 273 314 15,000  Level Atlanta Center
Fri 01:51:18 AM 35.7364 -80.8153 190° South 277 319 15,000 -200 Level Atlanta Center
Fri 01:51:41 AM 35.7075 -80.8242 194° South 273 314 14,800 -800 Descending Atlanta Center
Fri 01:52:18 AM 35.6617 -80.8336 190° South 277 319 14,200 -984 Descending Atlanta Center
Fri 01:52:42 AM 35.6369 -80.8422 196° South 266 306 13,800 -1,000 Descending Atlanta Center
Fri 01:53:18 AM 35.5936 -80.8542 193° South 271 312 13,200 -1,000 Descending Atlanta Center
Fri 01:53:42 AM 35.5686 -80.8603 191° South 250 288 12,800 -900 Descending Atlanta Center
Fri 01:54:18 AM 35.5250 -80.8719 192° South 266 306 12,300 -885 Descending Atlanta Center
Fri 01:54:43 AM 35.4961 -80.8758 186° South 258 297 11,900 -1,300 Descending Atlanta Center
Fri 01:55:18 AM 35.4497 -80.8597 164° South 260 299 11,000 -1,574 Descending Atlanta Center
Fri 01:55:44 AM 35.4161 -80.8481 164° South 289 333 10,300 -1,600 Descending Atlanta Center
Fri 01:56:18 AM 35.3742 -80.8422 174° South 265 305 9,400 -1,600 Descending Atlanta Center
Fri 01:56:44 AM 35.3386 -80.8411 179° South 270 311 8,700 -1,586 Descending Atlanta Center
Fri 01:57:45 AM 35.2656 -80.8386 178° South 260 299 7,100 -1,574 Descending Atlanta Center
Fri 01:58:46 AM 35.1947 -80.8389 180° South 245 282 5,500 -1,537 Descending Atlanta Center
Fri 01:59:46 AM 35.1278 -80.8414 182° South 241 277 4,000 -1,140 Descending Atlanta Center
Fri 02:00:47 AM 35.0914 -80.8861 225° Southwest 199 229 3,200 -843 Descending Atlanta Center
Fri 02:01:47 AM 35.1156 -80.9308 303° West 172 198 2,300 -694 Descending Atlanta Center
Fri 02:02:48 AM 35.1553 -80.9319 359° North 124 143 1,800 -590 Descending Atlanta Center
Fri 02:03:49 AM 35.1867 -80.9358 354° North 106 122 1,100 -689 Descending Atlanta Center
Fri 02:05:00 AM 35.2000 -80.9333 341° North  Level FlightAware Approximate
Fri 02:12:00 AM 35.2137 -80.9491 341° North  Level Estimated

Login

Don't have an account? Register now (free) for customized features, flight alerts, and more!